Time,TemperatureF,DewpointF,PressureIn,WindDirection,WindDirectionDegrees,WindSpeedMPH,WindSpeedGustMPH,Humidity,HourlyPrecipIn,Conditions,Clouds,dailyrainin,SolarRadiationWatts/m^2,SoftwareType,DateUTC
2013-02-18 00:00:00,20.0,8.0,-100.00,SSE,157,5.0,-999.0,60,-99.99,,,-99.99,0.000000,,2013-02-18 05:00:00,
2013-02-18 00:42:00,20.0,8.0,-100.00,SSE,157,5.0,-999.0,60,-99.99,,,-99.99,0.000000,,2013-02-18 05:42:00,
2013-02-18 00:52:00,20.0,8.0,-100.00,SSE,157,5.0,-999.0,60,-99.99,,,-99.99,0.000000,,2013-02-18 05:52:00,
2013-02-18 03:00:00,22.0,10.0,-100.00,SE,135,7.0,-999.0,57,-99.99,,,-99.99,0.000000,,2013-02-18 08:00:00,
2013-02-18 03:42:00,22.0,10.0,-100.00,SE,135,7.0,-999.0,57,-99.99,,,-99.99,0.000000,,2013-02-18 08:42:00,
2013-02-18 03:52:00,22.0,10.0,-100.00,SE,135,7.0,-999.0,57,-99.99,,,-99.99,0.000000,,2013-02-18 08:52:00,
2013-02-18 06:00:00,24.0,11.0,-100.00,SE,135,10.0,-999.0,57,-99.99,,,-99.99,0.000000,,2013-02-18 11:00:00,
2013-02-18 06:43:00,24.0,11.0,-100.00,SE,135,10.0,-999.0,57,-99.99,,,-99.99,0.000000,,2013-02-18 11:43:00,
2013-02-18 06:53:00,24.0,11.0,-100.00,SE,135,10.0,-999.0,57,-99.99,,,-99.99,0.000000,,2013-02-18 11:53:00,
2013-02-18 09:00:00,28.0,14.0,-100.00,SSE,157,10.0,-999.0,55,-99.99,,,-99.99,98.599998,,2013-02-18 14:00:00,
2013-02-18 09:42:00,28.0,14.0,-100.00,SSE,157,10.0,-999.0,55,-99.99,,,-99.99,98.599998,,2013-02-18 14:42:00,
2013-02-18 09:53:00,28.0,14.0,-100.00,SSE,157,10.0,-999.0,55,-99.99,,,-99.99,98.599998,,2013-02-18 14:53:00,
2013-02-18 12:43:00,39.0,23.0,-100.00,SSE,157,9.0,-999.0,51,-99.99,,,-99.99,433.839996,,2013-02-18 17:43:00,
2013-02-18 12:53:00,39.0,23.0,-100.00,SSE,157,9.0,-999.0,51,-99.99,,,-99.99,433.839996,,2013-02-18 17:53:00,
2013-02-18 18:00:00,46.0,38.0,-100.00,South,180,9.0,-999.0,73,-99.99,,,-99.99,6.960000,,2013-02-18 23:00:00,
2013-02-18 18:43:00,46.0,38.0,-100.00,South,180,9.0,-999.0,73,-99.99,,,-99.99,6.960000,,2013-02-18 23:43:00,
2013-02-18 18:53:00,46.0,38.0,-100.00,South,180,9.0,-999.0,73,-99.99,,,-99.99,6.960000,,2013-02-18 23:53:00,
2013-02-18 21:00:00,44.0,39.0,-100.00,South,180,11.0,-999.0,81,0.01,,,-99.99,0.000000,,2013-02-19 02:00:00,
2013-02-18 21:44:00,44.0,39.0,-100.00,South,180,11.0,-999.0,81,0.01,,,-99.99,0.000000,,2013-02-19 02:44:00,
2013-02-18 21:55:00,44.0,39.0,-100.00,South,180,11.0,-999.0,81,0.01,,,-99.99,0.000000,,2013-02-19 02:55:00,